sensor_id;sensor_type;location;lat;lon;timestamp;temperature;humidity
20376;DHT22;10347;51.828;6.466;2023-09-19T00:01:57;18.50;99.90
20376;DHT22;10347;51.828;6.466;2023-09-19T00:04:22;18.50;99.90
20376;DHT22;10347;51.828;6.466;2023-09-19T00:06:54;18.40;99.90
20376;DHT22;10347;51.828;6.466;2023-09-19T00:09:19;18.40;99.90
20376;DHT22;10347;51.828;6.466;2023-09-19T00:11:45;18.40;99.90
20376;DHT22;10347;51.828;6.466;2023-09-19T00:14:13;18.30;99.90
20376;DHT22;10347;51.828;6.466;2023-09-19T00:16:39;18.40;99.90
20376;DHT22;10347;51.828;6.466;2023-09-19T00:19:06;18.40;99.90
20376;DHT22;10347;51.828;6.466;2023-09-19T00:21:32;18.40;99.90
20376;DHT22;10347;51.828;6.466;2023-09-19T00:23:58;18.40;99.90
20376;DHT22;10347;51.828;6.466;2023-09-19T00:26:23;18.40;99.90
20376;DHT22;10347;51.828;6.466;2023-09-19T00:28:52;18.40;99.90
20376;DHT22;10347;51.828;6.466;2023-09-19T00:31:18;18.30;99.90
20376;DHT22;10347;51.828;6.466;2023-09-19T00:33:43;18.40;99.90
20376;DHT22;10347;51.828;6.466;2023-09-19T00:36:09;18.40;99.90
20376;DHT22;10347;51.828;6.466;2023-09-19T00:38:34;18.40;99.90
20376;DHT22;10347;51.828;6.466;2023-09-19T00:41:00;18.40;99.90
20376;DHT22;10347;51.828;6.466;2023-09-19T00:43:26;18.40;99.90
20376;DHT22;10347;51.828;6.466;2023-09-19T00:45:53;18.40;99.90
20376;DHT22;10347;51.828;6.466;2023-09-19T00:48:21;18.40;99.90
20376;DHT22;10347;51.828;6.466;2023-09-19T00:50:48;18.40;99.90
20376;DHT22;10347;51.828;6.466;2023-09-19T00:53:17;18.40;99.90
20376;DHT22;10347;51.828;6.466;2023-09-19T00:55:44;18.40;99.90
20376;DHT22;10347;51.828;6.466;2023-09-19T00:58:11;18.30;99.90
20376;DHT22;10347;51.828;6.466;2023-09-19T01:00:37;18.30;99.90
20376;DHT22;10347;51.828;6.466;2023-09-19T01:03:02;18.30;99.90
20376;DHT22;10347;51.828;6.466;2023-09-19T01:05:28;18.20;99.90
20376;DHT22;10347;51.828;6.466;2023-09-19T01:07:55;18.20;99.90
20376;DHT22;10347;51.828;6.466;2023-09-19T01:10:21;18.20;99.90
20376;DHT22;10347;51.828;6.466;2023-09-19T01:16:03;18.20;99.90
20376;DHT22;10347;51.828;6.466;2023-09-19T01:21:39;18.10;99.90
20376;DHT22;10347;51.828;6.466;2023-09-19T01:29:50;18.10;99.90
20376;DHT22;10347;51.828;6.466;2023-09-19T01:32:21;18.10;99.90
20376;DHT22;10347;51.828;6.466;2023-09-19T01:34:51;18.10;99.90
20376;DHT22;10347;51.828;6.466;2023-09-19T01:37:19;18.10;99.90
20376;DHT22;10347;51.828;6.466;2023-09-19T01:39:47;18.10;99.90
20376;DHT22;10347;51.828;6.466;2023-09-19T01:42:37;18.10;99.90
20376;DHT22;10347;51.828;6.466;2023-09-19T01:47:34;18.00;99.90
20376;DHT22;10347;51.828;6.466;2023-09-19T01:50:16;18.00;99.90
20376;DHT22;10347;51.828;6.466;2023-09-19T01:52:49;18.00;99.90
20376;DHT22;10347;51.828;6.466;2023-09-19T01:55:17;17.90;99.90
20376;DHT22;10347;51.828;6.466;2023-09-19T01:58:04;17.90;99.90
20376;DHT22;10347;51.828;6.466;2023-09-19T02:00:35;17.90;99.90
20376;DHT22;10347;51.828;6.466;2023-09-19T02:03:02;17.80;99.90
20376;DHT22;10347;51.828;6.466;2023-09-19T02:05:29;17.80;99.90
20376;DHT22;10347;51.828;6.466;2023-09-19T02:07:55;17.80;99.90
20376;DHT22;10347;51.828;6.466;2023-09-19T02:10:21;17.80;99.90
20376;DHT22;10347;51.828;6.466;2023-09-19T02:12:48;17.70;99.90
20376;DHT22;10347;51.828;6.466;2023-09-19T02:15:14;17.70;99.90
20376;DHT22;10347;51.828;6.466;2023-09-19T02:17:41;17.70;99.90
20376;DHT22;10347;51.828;6.466;2023-09-19T02:20:08;17.70;99.90
20376;DHT22;10347;51.828;6.466;2023-09-19T02:22:35;17.60;99.90
20376;DHT22;10347;51.828;6.466;2023-09-19T02:25:01;17.60;99.90
20376;DHT22;10347;51.828;6.466;2023-09-19T02:27:27;17.60;99.90
20376;DHT22;10347;51.828;6.466;2023-09-19T02:29:52;17.50;99.90
20376;DHT22;10347;51.828;6.466;2023-09-19T02:32:18;17.50;99.90
20376;DHT22;10347;51.828;6.466;2023-09-19T02:34:43;17.50;99.90
20376;DHT22;10347;51.828;6.466;2023-09-19T02:37:10;17.40;99.90
20376;DHT22;10347;51.828;6.466;2023-09-19T02:39:35;17.40;99.90
20376;DHT22;10347;51.828;6.466;2023-09-19T02:42:01;17.50;99.90
20376;DHT22;10347;51.828;6.466;2023-09-19T02:44:29;17.50;99.90
20376;DHT22;10347;51.828;6.466;2023-09-19T02:46:55;17.40;99.90
20376;DHT22;10347;51.828;6.466;2023-09-19T02:49:22;17.50;99.90
20376;DHT22;10347;51.828;6.466;2023-09-19T02:51:48;17.40;99.90
20376;DHT22;10347;51.828;6.466;2023-09-19T02:54:13;17.40;99.90
20376;DHT22;10347;51.828;6.466;2023-09-19T02:56:41;17.40;99.90
20376;DHT22;10347;51.828;6.466;2023-09-19T02:59:06;17.40;99.90
20376;DHT22;10347;51.828;6.466;2023-09-19T03:01:32;17.30;99.90
20376;DHT22;10347;51.828;6.466;2023-09-19T03:03:59;17.30;99.90
20376;DHT22;10347;51.828;6.466;2023-09-19T03:06:24;17.30;99.90
20376;DHT22;10347;51.828;6.466;2023-09-19T03:08:50;17.30;99.90
20376;DHT22;10347;51.828;6.466;2023-09-19T03:11:17;17.20;99.90
20376;DHT22;10347;51.828;6.466;2023-09-19T03:13:51;17.20;99.90
20376;DHT22;10347;51.828;6.466;2023-09-19T03:16:16;17.30;99.90
20376;DHT22;10347;51.828;6.466;2023-09-19T03:18:42;17.20;99.90
20376;DHT22;10347;51.828;6.466;2023-09-19T03:21:07;17.20;99.90
20376;DHT22;10347;51.828;6.466;2023-09-19T03:23:33;17.30;99.90
20376;DHT22;10347;51.828;6.466;2023-09-19T03:25:59;17.20;99.90
20376;DHT22;10347;51.828;6.466;2023-09-19T03:28:24;17.20;99.90
20376;DHT22;10347;51.828;6.466;2023-09-19T03:31:00;17.20;99.90
20376;DHT22;10347;51.828;6.466;2023-09-19T03:33:26;17.10;99.90
20376;DHT22;10347;51.828;6.466;2023-09-19T03:35:53;17.10;99.90
20376;DHT22;10347;51.828;6.466;2023-09-19T03:38:19;17.10;99.90
20376;DHT22;10347;51.828;6.466;2023-09-19T03:40:45;17.10;99.90
20376;DHT22;10347;51.828;6.466;2023-09-19T03:43:10;17.10;99.90
20376;DHT22;10347;51.828;6.466;2023-09-19T03:45:36;17.00;99.90
20376;DHT22;10347;51.828;6.466;2023-09-19T03:48:10;17.00;99.90
20376;DHT22;10347;51.828;6.466;2023-09-19T03:50:36;16.90;99.90
20376;DHT22;10347;51.828;6.466;2023-09-19T03:53:02;16.90;99.90
20376;DHT22;10347;51.828;6.466;2023-09-19T03:55:28;16.90;99.90
20376;DHT22;10347;51.828;6.466;2023-09-19T03:57:55;16.90;99.90
20376;DHT22;10347;51.828;6.466;2023-09-19T04:00:22;16.90;99.90
20376;DHT22;10347;51.828;6.466;2023-09-19T04:02:51;16.90;99.90
20376;DHT22;10347;51.828;6.466;2023-09-19T04:05:17;16.90;99.90
20376;DHT22;10347;51.828;6.466;2023-09-19T04:07:42;16.90;99.90
20376;DHT22;10347;51.828;6.466;2023-09-19T04:10:09;16.80;99.90
20376;DHT22;10347;51.828;6.466;2023-09-19T04:12:37;16.80;99.90
20376;DHT22;10347;51.828;6.466;2023-09-19T04:15:02;16.80;99.90
20376;DHT22;10347;51.828;6.466;2023-09-19T04:17:28;16.70;99.90
20376;DHT22;10347;51.828;6.466;2023-09-19T04:19:54;16.70;99.90
20376;DHT22;10347;51.828;6.466;2023-09-19T04:22:19;16.70;99.90
20376;DHT22;10347;51.828;6.466;2023-09-19T04:24:45;16.70;99.90
20376;DHT22;10347;51.828;6.466;2023-09-19T04:27:11;16.70;99.90
20376;DHT22;10347;51.828;6.466;2023-09-19T04:29:40;16.70;99.90
20376;DHT22;10347;51.828;6.466;2023-09-19T04:32:07;16.70;99.90
20376;DHT22;10347;51.828;6.466;2023-09-19T04:34:33;16.70;99.90
20376;DHT22;10347;51.828;6.466;2023-09-19T04:37:00;16.70;99.90
20376;DHT22;10347;51.828;6.466;2023-09-19T04:39:26;16.70;99.90
20376;DHT22;10347;51.828;6.466;2023-09-19T04:41:52;16.60;99.90
20376;DHT22;10347;51.828;6.466;2023-09-19T04:44:18;16.70;99.90
20376;DHT22;10347;51.828;6.466;2023-09-19T04:46:44;16.60;99.90
20376;DHT22;10347;51.828;6.466;2023-09-19T04:49:11;16.60;99.90
20376;DHT22;10347;51.828;6.466;2023-09-19T04:51:37;16.60;99.90
20376;DHT22;10347;51.828;6.466;2023-09-19T04:54:03;16.60;99.90
20376;DHT22;10347;51.828;6.466;2023-09-19T04:56:29;16.60;99.90
20376;DHT22;10347;51.828;6.466;2023-09-19T04:58:55;16.50;99.90
20376;DHT22;10347;51.828;6.466;2023-09-19T05:01:21;16.50;99.90
20376;DHT22;10347;51.828;6.466;2023-09-19T05:03:48;16.50;99.90
20376;DHT22;10347;51.828;6.466;2023-09-19T05:06:21;16.50;99.90
20376;DHT22;10347;51.828;6.466;2023-09-19T05:08:47;16.50;99.90
20376;DHT22;10347;51.828;6.466;2023-09-19T05:11:19;16.50;99.90
20376;DHT22;10347;51.828;6.466;2023-09-19T05:13:47;16.50;99.90
20376;DHT22;10347;51.828;6.466;2023-09-19T05:16:12;16.50;99.90
20376;DHT22;10347;51.828;6.466;2023-09-19T05:18:38;16.50;99.90
20376;DHT22;10347;51.828;6.466;2023-09-19T05:21:03;16.40;99.90
20376;DHT22;10347;51.828;6.466;2023-09-19T05:23:29;16.40;99.90
20376;DHT22;10347;51.828;6.466;2023-09-19T05:25:55;16.40;99.90
20376;DHT22;10347;51.828;6.466;2023-09-19T05:28:22;16.40;99.90
20376;DHT22;10347;51.828;6.466;2023-09-19T05:30:48;16.40;99.90
20376;DHT22;10347;51.828;6.466;2023-09-19T05:33:14;16.40;99.90
20376;DHT22;10347;51.828;6.466;2023-09-19T05:35:39;16.40;99.90
20376;DHT22;10347;51.828;6.466;2023-09-19T05:38:07;16.40;99.90
20376;DHT22;10347;51.828;6.466;2023-09-19T05:40:34;16.40;99.90
20376;DHT22;10347;51.828;6.466;2023-09-19T05:43:00;16.40;99.90
20376;DHT22;10347;51.828;6.466;2023-09-19T05:45:26;16.30;99.90
20376;DHT22;10347;51.828;6.466;2023-09-19T05:47:53;16.40;99.90
20376;DHT22;10347;51.828;6.466;2023-09-19T05:50:26;16.30;99.90
20376;DHT22;10347;51.828;6.466;2023-09-19T05:52:55;16.30;99.90
20376;DHT22;10347;51.828;6.466;2023-09-19T05:55:21;16.30;99.90
20376;DHT22;10347;51.828;6.466;2023-09-19T05:57:51;16.30;99.90
20376;DHT22;10347;51.828;6.466;2023-09-19T06:00:18;16.30;99.90
20376;DHT22;10347;51.828;6.466;2023-09-19T06:02:44;16.30;99.90
20376;DHT22;10347;51.828;6.466;2023-09-19T06:05:10;16.30;99.90
20376;DHT22;10347;51.828;6.466;2023-09-19T06:07:36;16.30;99.90
20376;DHT22;10347;51.828;6.466;2023-09-19T06:10:04;16.30;99.90
20376;DHT22;10347;51.828;6.466;2023-09-19T06:12:31;16.40;99.90
20376;DHT22;10347;51.828;6.466;2023-09-19T06:14:59;16.40;99.90
20376;DHT22;10347;51.828;6.466;2023-09-19T06:17:25;16.40;99.90
20376;DHT22;10347;51.828;6.466;2023-09-19T06:19:52;16.40;99.90
20376;DHT22;10347;51.828;6.466;2023-09-19T06:22:17;16.40;99.90
20376;DHT22;10347;51.828;6.466;2023-09-19T06:24:44;16.40;99.90
20376;DHT22;10347;51.828;6.466;2023-09-19T06:27:10;16.50;99.90
20376;DHT22;10347;51.828;6.466;2023-09-19T06:29:35;16.40;99.90
20376;DHT22;10347;51.828;6.466;2023-09-19T06:32:09;16.40;99.90
20376;DHT22;10347;51.828;6.466;2023-09-19T06:34:35;16.50;99.90
20376;DHT22;10347;51.828;6.466;2023-09-19T06:37:01;16.50;99.90
20376;DHT22;10347;51.828;6.466;2023-09-19T06:39:28;16.40;99.90
20376;DHT22;10347;51.828;6.466;2023-09-19T06:41:54;16.40;99.90
20376;DHT22;10347;51.828;6.466;2023-09-19T06:44:19;16.50;99.90
20376;DHT22;10347;51.828;6.466;2023-09-19T06:46:47;16.40;99.90
20376;DHT22;10347;51.828;6.466;2023-09-19T06:49:15;16.50;99.90
20376;DHT22;10347;51.828;6.466;2023-09-19T06:51:41;16.50;99.90
20376;DHT22;10347;51.828;6.466;2023-09-19T06:54:07;16.50;99.90
20376;DHT22;10347;51.828;6.466;2023-09-19T06:56:32;16.50;99.90
20376;DHT22;10347;51.828;6.466;2023-09-19T06:58:58;16.50;99.90
20376;DHT22;10347;51.828;6.466;2023-09-19T07:01:24;16.50;99.90
20376;DHT22;10347;51.828;6.466;2023-09-19T07:03:50;16.50;99.90
20376;DHT22;10347;51.828;6.466;2023-09-19T07:06:16;16.60;99.90
20376;DHT22;10347;51.828;6.466;2023-09-19T07:08:42;16.60;99.90
20376;DHT22;10347;51.828;6.466;2023-09-19T07:11:09;16.60;99.90
20376;DHT22;10347;51.828;6.466;2023-09-19T07:13:36;16.60;99.90
20376;DHT22;10347;51.828;6.466;2023-09-19T07:16:02;16.60;99.90
20376;DHT22;10347;51.828;6.466;2023-09-19T07:18:27;16.70;99.90
20376;DHT22;10347;51.828;6.466;2023-09-19T07:20:57;16.70;99.90
20376;DHT22;10347;51.828;6.466;2023-09-19T07:23:26;16.70;99.90
20376;DHT22;10347;51.828;6.466;2023-09-19T07:25:56;16.80;99.90
20376;DHT22;10347;51.828;6.466;2023-09-19T07:28:22;16.70;99.90
20376;DHT22;10347;51.828;6.466;2023-09-19T07:30:48;16.80;99.90
20376;DHT22;10347;51.828;6.466;2023-09-19T07:33:13;16.70;99.90
20376;DHT22;10347;51.828;6.466;2023-09-19T07:35:39;16.70;99.90
20376;DHT22;10347;51.828;6.466;2023-09-19T07:38:06;16.80;99.90
20376;DHT22;10347;51.828;6.466;2023-09-19T07:40:31;16.80;99.90
20376;DHT22;10347;51.828;6.466;2023-09-19T07:42:57;16.80;99.90
20376;DHT22;10347;51.828;6.466;2023-09-19T07:45:29;16.90;99.90
20376;DHT22;10347;51.828;6.466;2023-09-19T07:47:55;16.90;99.90
20376;DHT22;10347;51.828;6.466;2023-09-19T07:50:21;16.80;99.90
20376;DHT22;10347;51.828;6.466;2023-09-19T07:52:48;16.90;99.90
20376;DHT22;10347;51.828;6.466;2023-09-19T07:55:14;16.90;99.90
20376;DHT22;10347;51.828;6.466;2023-09-19T07:57:45;17.00;99.90
20376;DHT22;10347;51.828;6.466;2023-09-19T08:00:11;17.00;99.90
20376;DHT22;10347;51.828;6.466;2023-09-19T08:02:37;17.00;99.90
20376;DHT22;10347;51.828;6.466;2023-09-19T08:05:08;17.10;99.90
20376;DHT22;10347;51.828;6.466;2023-09-19T08:07:37;17.10;99.90
20376;DHT22;10347;51.828;6.466;2023-09-19T08:10:04;17.10;99.90
20376;DHT22;10347;51.828;6.466;2023-09-19T08:12:33;17.10;99.90
20376;DHT22;10347;51.828;6.466;2023-09-19T08:15:01;17.20;99.90
20376;DHT22;10347;51.828;6.466;2023-09-19T08:17:27;17.20;99.90
20376;DHT22;10347;51.828;6.466;2023-09-19T08:19:52;17.20;99.90
20376;DHT22;10347;51.828;6.466;2023-09-19T08:22:19;17.20;99.90
20376;DHT22;10347;51.828;6.466;2023-09-19T08:24:45;17.20;99.90
20376;DHT22;10347;51.828;6.466;2023-09-19T08:27:11;17.30;99.90
20376;DHT22;10347;51.828;6.466;2023-09-19T08:29:38;17.30;99.90
20376;DHT22;10347;51.828;6.466;2023-09-19T08:32:04;17.40;99.90
20376;DHT22;10347;51.828;6.466;2023-09-19T08:34:29;17.40;99.90
20376;DHT22;10347;51.828;6.466;2023-09-19T08:36:59;17.40;99.90
20376;DHT22;10347;51.828;6.466;2023-09-19T08:39:25;17.40;99.90
20376;DHT22;10347;51.828;6.466;2023-09-19T08:42:01;17.50;99.90
20376;DHT22;10347;51.828;6.466;2023-09-19T08:44:27;17.50;99.90
20376;DHT22;10347;51.828;6.466;2023-09-19T08:47:07;17.50;99.90
20376;DHT22;10347;51.828;6.466;2023-09-19T08:52:42;17.60;99.90
20376;DHT22;10347;51.828;6.466;2023-09-19T08:55:12;17.70;99.90
20376;DHT22;10347;51.828;6.466;2023-09-19T08:57:38;17.70;99.90
20376;DHT22;10347;51.828;6.466;2023-09-19T09:00:08;17.80;99.90
20376;DHT22;10347;51.828;6.466;2023-09-19T09:02:38;17.80;99.90
20376;DHT22;10347;51.828;6.466;2023-09-19T09:05:10;17.90;99.90
20376;DHT22;10347;51.828;6.466;2023-09-19T09:07:37;17.90;99.90
20376;DHT22;10347;51.828;6.466;2023-09-19T09:10:04;18.00;99.90
20376;DHT22;10347;51.828;6.466;2023-09-19T09:12:30;18.00;99.90
20376;DHT22;10347;51.828;6.466;2023-09-19T09:14:56;18.10;99.90
20376;DHT22;10347;51.828;6.466;2023-09-19T09:17:25;18.10;99.90
20376;DHT22;10347;51.828;6.466;2023-09-19T09:19:54;18.10;99.90
20376;DHT22;10347;51.828;6.466;2023-09-19T09:22:20;18.20;99.90
20376;DHT22;10347;51.828;6.466;2023-09-19T09:24:57;18.30;99.90
20376;DHT22;10347;51.828;6.466;2023-09-19T09:27:30;18.30;99.90
20376;DHT22;10347;51.828;6.466;2023-09-19T09:29:58;18.40;99.90
20376;DHT22;10347;51.828;6.466;2023-09-19T09:32:24;18.50;99.90
20376;DHT22;10347;51.828;6.466;2023-09-19T09:34:56;18.50;99.90
20376;DHT22;10347;51.828;6.466;2023-09-19T09:37:22;18.60;99.90
20376;DHT22;10347;51.828;6.466;2023-09-19T09:39:56;18.60;99.90
20376;DHT22;10347;51.828;6.466;2023-09-19T09:42:34;18.60;99.90
20376;DHT22;10347;51.828;6.466;2023-09-19T09:45:25;18.70;99.90
20376;DHT22;10347;51.828;6.466;2023-09-19T09:48:02;18.80;99.90
20376;DHT22;10347;51.828;6.466;2023-09-19T09:50:47;18.80;99.90
20376;DHT22;10347;51.828;6.466;2023-09-19T09:53:39;18.90;99.90
20376;DHT22;10347;51.828;6.466;2023-09-19T09:56:09;19.00;99.90
20376;DHT22;10347;51.828;6.466;2023-09-19T09:58:36;19.10;99.90
20376;DHT22;10347;51.828;6.466;2023-09-19T10:01:03;19.10;99.90
20376;DHT22;10347;51.828;6.466;2023-09-19T10:03:39;19.10;99.90
20376;DHT22;10347;51.828;6.466;2023-09-19T10:06:06;19.20;99.90
20376;DHT22;10347;51.828;6.466;2023-09-19T10:09:07;19.20;99.90
20376;DHT22;10347;51.828;6.466;2023-09-19T10:14:10;19.30;99.90
20376;DHT22;10347;51.828;6.466;2023-09-19T10:16:46;19.40;99.90
20376;DHT22;10347;51.828;6.466;2023-09-19T10:19:28;19.40;99.90
20376;DHT22;10347;51.828;6.466;2023-09-19T10:21:55;19.50;99.90
20376;DHT22;10347;51.828;6.466;2023-09-19T10:24:22;19.50;99.90
20376;DHT22;10347;51.828;6.466;2023-09-19T10:26:50;19.60;99.90
20376;DHT22;10347;51.828;6.466;2023-09-19T10:29:17;19.70;99.90
20376;DHT22;10347;51.828;6.466;2023-09-19T10:31:47;19.70;99.90
20376;DHT22;10347;51.828;6.466;2023-09-19T10:34:17;19.70;99.90
20376;DHT22;10347;51.828;6.466;2023-09-19T10:36:46;19.80;99.90
20376;DHT22;10347;51.828;6.466;2023-09-19T10:39:15;19.80;99.90
20376;DHT22;10347;51.828;6.466;2023-09-19T10:41:50;19.90;99.90
20376;DHT22;10347;51.828;6.466;2023-09-19T10:44:26;20.00;99.90
20376;DHT22;10347;51.828;6.466;2023-09-19T10:46:52;20.00;99.90
20376;DHT22;10347;51.828;6.466;2023-09-19T10:49:20;20.10;99.90
20376;DHT22;10347;51.828;6.466;2023-09-19T10:51:48;20.10;99.90
20376;DHT22;10347;51.828;6.466;2023-09-19T10:54:17;20.10;99.90
20376;DHT22;10347;51.828;6.466;2023-09-19T10:56:51;20.10;99.90
20376;DHT22;10347;51.828;6.466;2023-09-19T10:59:19;20.20;99.90
20376;DHT22;10347;51.828;6.466;2023-09-19T11:01:51;20.20;99.90
20376;DHT22;10347;51.828;6.466;2023-09-19T11:04:25;20.30;99.90
20376;DHT22;10347;51.828;6.466;2023-09-19T11:07:07;20.30;99.90
20376;DHT22;10347;51.828;6.466;2023-09-19T11:09:43;20.30;99.90
20376;DHT22;10347;51.828;6.466;2023-09-19T11:12:12;20.40;99.90
20376;DHT22;10347;51.828;6.466;2023-09-19T11:14:39;20.30;99.90
20376;DHT22;10347;51.828;6.466;2023-09-19T11:30:49;20.40;99.90
20376;DHT22;10347;51.828;6.466;2023-09-19T11:33:33;20.60;99.90
20376;DHT22;10347;51.828;6.466;2023-09-19T11:43:48;20.70;99.90
20376;DHT22;10347;51.828;6.466;2023-09-19T11:46:16;20.70;99.90
20376;DHT22;10347;51.828;6.466;2023-09-19T11:48:48;20.70;99.90
20376;DHT22;10347;51.828;6.466;2023-09-19T11:51:24;20.70;99.90
20376;DHT22;10347;51.828;6.466;2023-09-19T11:53:54;20.70;99.90
20376;DHT22;10347;51.828;6.466;2023-09-19T11:56:21;20.70;99.90
20376;DHT22;10347;51.828;6.466;2023-09-19T11:58:50;20.80;99.90
20376;DHT22;10347;51.828;6.466;2023-09-19T12:01:29;20.90;99.90
20376;DHT22;10347;51.828;6.466;2023-09-19T12:03:56;20.90;99.90
20376;DHT22;10347;51.828;6.466;2023-09-19T12:06:24;20.90;99.90
20376;DHT22;10347;51.828;6.466;2023-09-19T12:08:53;20.90;99.90
20376;DHT22;10347;51.828;6.466;2023-09-19T12:11:23;20.90;99.90
20376;DHT22;10347;51.828;6.466;2023-09-19T12:13:49;20.90;99.90
20376;DHT22;10347;51.828;6.466;2023-09-19T12:16:20;20.90;99.90
20376;DHT22;10347;51.828;6.466;2023-09-19T12:18:49;20.90;99.90
20376;DHT22;10347;51.828;6.466;2023-09-19T12:21:42;20.90;99.90
20376;DHT22;10347;51.828;6.466;2023-09-19T12:24:11;20.90;99.90
20376;DHT22;10347;51.828;6.466;2023-09-19T12:26:43;20.90;99.90
20376;DHT22;10347;51.828;6.466;2023-09-19T12:29:16;20.90;99.90
20376;DHT22;10347;51.828;6.466;2023-09-19T12:31:54;21.00;99.90
20376;DHT22;10347;51.828;6.466;2023-09-19T12:34:26;21.00;99.90
20376;DHT22;10347;51.828;6.466;2023-09-19T12:37:11;21.00;99.90
20376;DHT22;10347;51.828;6.466;2023-09-19T12:39:39;21.00;99.90
20376;DHT22;10347;51.828;6.466;2023-09-19T12:42:10;21.00;99.90
20376;DHT22;10347;51.828;6.466;2023-09-19T12:44:37;21.00;99.90
20376;DHT22;10347;51.828;6.466;2023-09-19T12:47:14;21.00;99.90
20376;DHT22;10347;51.828;6.466;2023-09-19T12:50:10;21.10;99.90
20376;DHT22;10347;51.828;6.466;2023-09-19T12:55:26;21.20;99.90
20376;DHT22;10347;51.828;6.466;2023-09-19T13:00:33;21.30;99.90
20376;DHT22;10347;51.828;6.466;2023-09-19T13:03:17;21.30;99.90
20376;DHT22;10347;51.828;6.466;2023-09-19T13:05:57;21.30;99.90
20376;DHT22;10347;51.828;6.466;2023-09-19T13:08:27;21.40;99.90
20376;DHT22;10347;51.828;6.466;2023-09-19T13:11:13;21.40;99.90
20376;DHT22;10347;51.828;6.466;2023-09-19T13:13:45;21.40;99.90
20376;DHT22;10347;51.828;6.466;2023-09-19T13:16:13;21.40;99.90
20376;DHT22;10347;51.828;6.466;2023-09-19T13:18:55;21.40;99.90
20376;DHT22;10347;51.828;6.466;2023-09-19T13:21:30;21.40;99.90
20376;DHT22;10347;51.828;6.466;2023-09-19T13:24:19;21.40;99.90
20376;DHT22;10347;51.828;6.466;2023-09-19T13:26:45;21.40;99.90
20376;DHT22;10347;51.828;6.466;2023-09-19T13:29:11;21.40;99.90
20376;DHT22;10347;51.828;6.466;2023-09-19T13:31:37;21.30;99.90
20376;DHT22;10347;51.828;6.466;2023-09-19T13:34:07;21.30;99.90
20376;DHT22;10347;51.828;6.466;2023-09-19T13:36:32;21.30;99.90
20376;DHT22;10347;51.828;6.466;2023-09-19T13:38:59;21.30;99.90
20376;DHT22;10347;51.828;6.466;2023-09-19T13:41:25;21.20;99.90
20376;DHT22;10347;51.828;6.466;2023-09-19T13:43:51;21.20;99.90
20376;DHT22;10347;51.828;6.466;2023-09-19T13:46:17;21.20;99.90
20376;DHT22;10347;51.828;6.466;2023-09-19T13:48:50;21.20;99.90
20376;DHT22;10347;51.828;6.466;2023-09-19T13:51:17;21.10;99.90
20376;DHT22;10347;51.828;6.466;2023-09-19T13:53:44;21.20;99.90
20376;DHT22;10347;51.828;6.466;2023-09-19T13:56:10;21.10;99.90
20376;DHT22;10347;51.828;6.466;2023-09-19T13:58:36;21.10;99.90
20376;DHT22;10347;51.828;6.466;2023-09-19T14:01:02;21.10;99.90
20376;DHT22;10347;51.828;6.466;2023-09-19T14:03:27;21.10;99.90
20376;DHT22;10347;51.828;6.466;2023-09-19T14:05:53;21.10;99.90
20376;DHT22;10347;51.828;6.466;2023-09-19T14:08:19;21.10;99.90
20376;DHT22;10347;51.828;6.466;2023-09-19T14:10:45;21.10;99.90
20376;DHT22;10347;51.828;6.466;2023-09-19T14:13:10;21.10;99.90
20376;DHT22;10347;51.828;6.466;2023-09-19T14:15:38;21.10;99.90
20376;DHT22;10347;51.828;6.466;2023-09-19T14:18:04;21.10;99.90
20376;DHT22;10347;51.828;6.466;2023-09-19T14:20:30;21.10;99.90
20376;DHT22;10347;51.828;6.466;2023-09-19T14:22:56;21.00;99.90
20376;DHT22;10347;51.828;6.466;2023-09-19T14:25:24;21.00;99.90
20376;DHT22;10347;51.828;6.466;2023-09-19T14:27:50;21.00;99.90
20376;DHT22;10347;51.828;6.466;2023-09-19T14:30:16;21.10;99.90
20376;DHT22;10347;51.828;6.466;2023-09-19T14:32:41;21.00;99.90
20376;DHT22;10347;51.828;6.466;2023-09-19T14:35:07;21.10;99.90
20376;DHT22;10347;51.828;6.466;2023-09-19T14:37:35;21.10;99.90
20376;DHT22;10347;51.828;6.466;2023-09-19T14:40:00;21.00;99.90
20376;DHT22;10347;51.828;6.466;2023-09-19T14:42:32;21.10;99.90
20376;DHT22;10347;51.828;6.466;2023-09-19T14:44:58;21.10;99.90
20376;DHT22;10347;51.828;6.466;2023-09-19T14:47:24;21.10;99.90
20376;DHT22;10347;51.828;6.466;2023-09-19T14:49:49;21.20;99.90
20376;DHT22;10347;51.828;6.466;2023-09-19T14:52:15;21.20;99.90
20376;DHT22;10347;51.828;6.466;2023-09-19T14:54:41;21.20;99.90
20376;DHT22;10347;51.828;6.466;2023-09-19T14:57:07;21.10;99.90
20376;DHT22;10347;51.828;6.466;2023-09-19T14:59:34;21.10;99.90
20376;DHT22;10347;51.828;6.466;2023-09-19T15:02:06;21.10;99.90
20376;DHT22;10347;51.828;6.466;2023-09-19T15:04:32;21.10;99.90
20376;DHT22;10347;51.828;6.466;2023-09-19T15:06:59;21.10;99.90
20376;DHT22;10347;51.828;6.466;2023-09-19T15:09:25;21.10;99.90
20376;DHT22;10347;51.828;6.466;2023-09-19T15:11:54;21.10;99.90
20376;DHT22;10347;51.828;6.466;2023-09-19T15:14:20;21.10;99.90
20376;DHT22;10347;51.828;6.466;2023-09-19T15:16:46;21.10;99.90
20376;DHT22;10347;51.828;6.466;2023-09-19T15:19:13;21.10;99.90
20376;DHT22;10347;51.828;6.466;2023-09-19T15:21:38;21.20;99.90
20376;DHT22;10347;51.828;6.466;2023-09-19T15:24:05;21.10;99.90
20376;DHT22;10347;51.828;6.466;2023-09-19T15:26:34;21.10;99.90
20376;DHT22;10347;51.828;6.466;2023-09-19T15:29:07;21.10;99.90
20376;DHT22;10347;51.828;6.466;2023-09-19T15:31:32;21.10;99.90
20376;DHT22;10347;51.828;6.466;2023-09-19T15:33:58;21.10;99.90
20376;DHT22;10347;51.828;6.466;2023-09-19T15:36:24;21.00;99.90
20376;DHT22;10347;51.828;6.466;2023-09-19T15:41:23;21.00;99.90
20376;DHT22;10347;51.828;6.466;2023-09-19T15:43:49;21.00;99.90
20376;DHT22;10347;51.828;6.466;2023-09-19T15:46:14;21.00;99.90
20376;DHT22;10347;51.828;6.466;2023-09-19T15:48:41;21.00;99.90
20376;DHT22;10347;51.828;6.466;2023-09-19T15:51:06;21.00;99.90
20376;DHT22;10347;51.828;6.466;2023-09-19T15:53:45;21.00;99.90
20376;DHT22;10347;51.828;6.466;2023-09-19T15:56:12;21.00;99.90
20376;DHT22;10347;51.828;6.466;2023-09-19T15:58:39;21.00;99.90
20376;DHT22;10347;51.828;6.466;2023-09-19T16:01:05;20.90;99.90
20376;DHT22;10347;51.828;6.466;2023-09-19T16:03:37;20.90;99.90
20376;DHT22;10347;51.828;6.466;2023-09-19T16:06:11;20.90;99.90
20376;DHT22;10347;51.828;6.466;2023-09-19T16:08:41;20.90;99.90
20376;DHT22;10347;51.828;6.466;2023-09-19T16:11:08;20.90;99.90
20376;DHT22;10347;51.828;6.466;2023-09-19T16:13:38;20.90;99.90
20376;DHT22;10347;51.828;6.466;2023-09-19T16:16:04;20.90;99.90
20376;DHT22;10347;51.828;6.466;2023-09-19T16:18:30;20.90;99.90
20376;DHT22;10347;51.828;6.466;2023-09-19T16:21:06;20.90;99.90
20376;DHT22;10347;51.828;6.466;2023-09-19T16:23:35;20.90;99.90
20376;DHT22;10347;51.828;6.466;2023-09-19T16:26:06;20.90;99.90
20376;DHT22;10347;51.828;6.466;2023-09-19T16:28:38;20.90;99.90